createdAt,value
2018-07-30T00:00:00.486Z,983.80
2018-07-30T00:01:00.677Z,983.83
2018-07-30T00:02:00.860Z,983.80
2018-07-30T00:03:01.046Z,983.81
2018-07-30T00:04:01.233Z,983.80
2018-07-30T00:05:01.418Z,983.78
2018-07-30T00:06:01.611Z,983.77
2018-07-30T00:07:01.797Z,983.78
2018-07-30T00:08:02.004Z,983.79
2018-07-30T00:09:02.161Z,983.79
2018-07-30T00:10:02.346Z,983.81
2018-07-30T00:11:02.529Z,983.78
2018-07-30T00:12:02.711Z,983.75
2018-07-30T00:13:02.904Z,983.78
2018-07-30T00:14:03.091Z,983.83
2018-07-30T00:15:03.274Z,983.82
2018-07-30T00:16:03.451Z,983.84
2018-07-30T00:17:03.655Z,983.81
2018-07-30T00:18:03.844Z,983.82
2018-07-30T00:19:04.018Z,983.79
2018-07-30T00:20:04.209Z,983.74
2018-07-30T00:21:04.382Z,983.77
2018-07-30T00:22:04.593Z,983.77
2018-07-30T00:23:04.795Z,983.74
2018-07-30T00:24:04.984Z,983.76
2018-07-30T00:25:05.162Z,983.77
2018-07-30T00:26:05.330Z,983.74
2018-07-30T00:27:05.527Z,983.74
2018-07-30T00:28:05.710Z,983.73
2018-07-30T00:29:05.928Z,983.73
2018-07-30T00:30:06.128Z,983.74
2018-07-30T00:31:06.280Z,983.72
2018-07-30T00:32:06.463Z,983.73
2018-07-30T00:33:06.637Z,983.74
2018-07-30T00:34:06.817Z,983.73
2018-07-30T00:35:07.003Z,983.77
2018-07-30T00:36:07.174Z,983.78
2018-07-30T00:37:07.383Z,983.76
2018-07-30T00:38:07.554Z,983.78
2018-07-30T00:39:07.754Z,983.77
2018-07-30T00:40:07.936Z,983.80
2018-07-30T00:41:08.124Z,983.78
2018-07-30T00:42:08.304Z,983.81
2018-07-30T00:43:08.488Z,983.79
2018-07-30T00:44:08.672Z,983.81
2018-07-30T00:46:52.054Z,983.80
2018-07-30T00:47:51.776Z,983.84
2018-07-30T00:48:51.939Z,983.83
2018-07-30T00:49:52.119Z,983.85
2018-07-30T00:50:52.311Z,983.84
2018-07-30T00:51:52.501Z,983.85
2018-07-30T00:52:52.681Z,983.85
2018-07-30T00:53:52.854Z,983.84
2018-07-30T00:54:53.061Z,983.84
2018-07-30T00:55:53.205Z,983.85
2018-07-30T00:56:53.501Z,983.91
2018-07-30T00:57:53.553Z,983.88
2018-07-30T00:58:53.737Z,983.91
2018-07-30T00:59:53.923Z,983.89
2018-07-30T01:00:54.108Z,983.93
2018-07-30T01:01:54.288Z,983.95
2018-07-30T01:02:54.502Z,983.94
2018-07-30T01:03:54.701Z,983.91
2018-07-30T01:04:54.849Z,983.92
2018-07-30T01:05:55.043Z,983.90
2018-07-30T01:06:55.206Z,983.88
2018-07-30T01:07:55.386Z,983.84
2018-07-30T01:08:55.572Z,983.87
2018-07-30T01:09:55.759Z,983.82
2018-07-30T01:10:55.947Z,983.85
2018-07-30T01:11:56.142Z,983.82
2018-07-30T01:12:56.335Z,983.80
2018-07-30T01:13:56.517Z,983.81
2018-07-30T01:14:56.717Z,983.82
2018-07-30T01:15:56.871Z,983.84
2018-07-30T01:16:57.055Z,983.83
2018-07-30T01:17:57.255Z,983.83
2018-07-30T01:18:57.444Z,983.81
2018-07-30T01:19:57.609Z,983.87
2018-07-30T01:20:57.793Z,983.86
2018-07-30T01:21:57.978Z,983.88
2018-07-30T01:22:58.153Z,983.86
2018-07-30T01:23:58.362Z,983.87
2018-07-30T01:24:58.571Z,983.86
2018-07-30T01:25:58.755Z,983.88
2018-07-30T01:26:58.945Z,983.89
2018-07-30T01:27:59.125Z,983.89
2018-07-30T01:28:59.311Z,983.92
2018-07-30T01:29:59.487Z,983.95
2018-07-30T01:30:59.647Z,983.95
2018-07-30T01:31:59.836Z,983.91
2018-07-30T01:33:00.056Z,984.00
2018-07-30T01:34:00.227Z,983.95
2018-07-30T01:35:00.404Z,983.94
2018-07-30T01:36:00.588Z,983.99
2018-07-30T01:37:00.759Z,983.95
2018-07-30T01:38:00.940Z,983.97
2018-07-30T01:39:01.126Z,983.97
2018-07-30T01:40:01.316Z,984.00
2018-07-30T01:41:01.497Z,983.99
2018-07-30T01:42:01.692Z,984.01
2018-07-30T01:43:01.881Z,983.99
2018-07-30T01:44:02.073Z,984.04
2018-07-30T01:45:02.248Z,984.01
2018-07-30T01:46:02.454Z,984.03
2018-07-30T01:47:02.632Z,984.04
2018-07-30T01:48:02.818Z,984.04
2018-07-30T01:49:02.998Z,984.04
2018-07-30T01:50:03.184Z,984.04
2018-07-30T01:51:03.371Z,984.10
2018-07-30T01:52:03.555Z,984.06
2018-07-30T01:53:03.736Z,984.04
2018-07-30T01:54:03.916Z,984.07
2018-07-30T01:55:04.093Z,984.08
2018-07-30T01:56:04.297Z,984.08
2018-07-30T01:57:04.480Z,984.09
2018-07-30T01:58:04.670Z,984.10
2018-07-30T01:59:04.861Z,984.06
2018-07-30T02:00:05.044Z,984.08
2018-07-30T02:01:05.239Z,984.09
2018-07-30T02:02:05.417Z,984.08
2018-07-30T02:03:05.611Z,984.12
2018-07-30T02:04:05.779Z,984.13
2018-07-30T02:05:05.966Z,984.10
2018-07-30T02:06:06.144Z,984.10
2018-07-30T02:07:06.372Z,984.11
2018-07-30T02:08:06.502Z,984.15
2018-07-30T02:10:49.397Z,984.13
2018-07-30T02:11:49.568Z,984.12
2018-07-30T02:12:49.755Z,984.14
2018-07-30T02:13:50.045Z,984.12
2018-07-30T02:14:50.104Z,984.15
2018-07-30T02:15:50.291Z,984.14
2018-07-30T02:16:50.469Z,984.15
2018-07-30T02:17:50.659Z,984.13
2018-07-30T02:18:50.830Z,984.14
2018-07-30T02:19:51.026Z,984.14
2018-07-30T02:20:51.209Z,984.17
2018-07-30T02:21:51.379Z,984.14
2018-07-30T02:22:51.590Z,984.13
2018-07-30T02:23:51.757Z,984.15
2018-07-30T02:24:51.944Z,984.14
2018-07-30T02:25:52.127Z,984.17
2018-07-30T02:26:52.316Z,984.17
2018-07-30T02:27:52.483Z,984.14
2018-07-30T02:28:52.672Z,984.17
2018-07-30T02:29:52.851Z,984.21
2018-07-30T02:30:53.036Z,984.16
2018-07-30T02:31:53.228Z,984.20
2018-07-30T02:32:53.406Z,984.20
2018-07-30T02:33:53.587Z,984.21
2018-07-30T02:34:53.774Z,984.22
2018-07-30T02:35:53.956Z,984.18
2018-07-30T02:36:54.154Z,984.16
2018-07-30T02:37:54.338Z,984.20
2018-07-30T02:38:54.512Z,984.23
2018-07-30T02:39:54.719Z,984.21
2018-07-30T02:40:54.918Z,984.19
2018-07-30T02:41:55.082Z,984.22
2018-07-30T02:42:55.260Z,984.24
2018-07-30T02:43:55.441Z,984.22
2018-07-30T02:44:55.620Z,984.23
2018-07-30T02:45:55.798Z,984.22
2018-07-30T02:46:55.977Z,984.27
2018-07-30T02:47:56.144Z,984.26
2018-07-30T02:48:56.320Z,984.29
2018-07-30T02:49:56.520Z,984.27
2018-07-30T02:50:56.693Z,984.29
2018-07-30T02:51:56.879Z,984.25
2018-07-30T02:52:57.059Z,984.33
2018-07-30T02:53:57.243Z,984.33
2018-07-30T02:54:57.429Z,984.31
2018-07-30T02:55:57.622Z,984.32
2018-07-30T02:56:57.798Z,984.30
2018-07-30T02:57:57.966Z,984.29
2018-07-30T02:58:58.146Z,984.28
2018-07-30T02:59:58.343Z,984.33
2018-07-30T03:00:58.511Z,984.33
2018-07-30T03:01:58.697Z,984.30
2018-07-30T03:02:58.873Z,984.30
2018-07-30T03:03:59.055Z,984.34
2018-07-30T03:04:59.244Z,984.30
2018-07-30T03:05:59.441Z,984.30
2018-07-30T03:06:59.625Z,984.30
2018-07-30T03:07:59.782Z,984.30
2018-07-30T03:08:59.969Z,984.32
2018-07-30T03:10:00.157Z,984.29
2018-07-30T03:11:00.321Z,984.32
2018-07-30T03:12:00.536Z,984.32
2018-07-30T03:13:00.724Z,984.33
2018-07-30T03:14:00.884Z,984.33
2018-07-30T03:15:01.096Z,984.33
2018-07-30T03:16:01.268Z,984.31
2018-07-30T03:17:01.440Z,984.37
2018-07-30T03:18:01.619Z,984.36
2018-07-30T03:19:01.794Z,984.41
2018-07-30T03:20:01.985Z,984.39
2018-07-30T03:21:02.160Z,984.41
2018-07-30T03:22:02.350Z,984.42
2018-07-30T03:23:02.528Z,984.43
2018-07-30T03:24:02.736Z,984.47
2018-07-30T03:25:02.911Z,984.45
2018-07-30T03:26:03.091Z,984.45
2018-07-30T03:27:03.320Z,984.46
2018-07-30T03:28:03.455Z,984.45
2018-07-30T03:29:03.648Z,984.45
2018-07-30T03:30:03.858Z,984.44
2018-07-30T03:31:04.040Z,984.43
2018-07-30T03:32:04.212Z,984.42
2018-07-30T03:33:04.410Z,984.45
2018-07-30T03:34:04.591Z,984.46
2018-07-30T03:35:04.770Z,984.46
2018-07-30T03:36:04.959Z,984.49
2018-07-30T03:37:05.187Z,984.48
2018-07-30T03:38:05.311Z,984.51
2018-07-30T03:39:05.503Z,984.52
2018-07-30T03:40:05.687Z,984.51
2018-07-30T03:41:05.892Z,984.53
2018-07-30T03:42:06.074Z,984.56
2018-07-30T03:43:06.265Z,984.56
2018-07-30T03:44:06.453Z,984.54
2018-07-30T03:45:06.629Z,984.51
2018-07-30T03:46:06.814Z,984.55
2018-07-30T03:47:07.000Z,984.51
2018-07-30T03:48:07.243Z,984.54
2018-07-30T03:49:07.370Z,984.52
2018-07-30T03:50:07.587Z,984.49
2018-07-30T03:51:07.787Z,984.48
2018-07-30T03:52:07.988Z,984.55
2018-07-30T03:53:08.199Z,984.52
2018-07-30T03:54:08.378Z,984.54
2018-07-30T03:55:08.577Z,984.53
2018-07-30T03:56:08.759Z,984.50
2018-07-30T03:57:08.929Z,984.52
2018-07-30T03:58:09.154Z,984.58
2018-07-30T03:59:09.298Z,984.55
2018-07-30T04:00:09.582Z,984.56
2018-07-30T04:01:09.668Z,984.56
2018-07-30T04:02:09.846Z,984.59
2018-07-30T04:03:10.031Z,984.54
2018-07-30T04:04:10.205Z,984.58
2018-07-30T04:05:10.394Z,984.60
2018-07-30T04:06:10.588Z,984.59
2018-07-30T04:07:10.744Z,984.58
2018-07-30T04:08:10.945Z,984.57
2018-07-30T04:09:11.133Z,984.61
2018-07-30T04:10:11.317Z,984.59
2018-07-30T04:11:11.506Z,984.59
2018-07-30T04:12:11.697Z,984.58
2018-07-30T04:13:11.872Z,984.59
2018-07-30T04:14:12.051Z,984.58
2018-07-30T04:15:12.245Z,984.58
2018-07-30T04:16:12.438Z,984.57
2018-07-30T04:17:12.649Z,984.55
2018-07-30T04:18:12.828Z,984.61
2018-07-30T04:19:13.007Z,984.58
2018-07-30T04:20:13.196Z,984.61
2018-07-30T04:21:13.372Z,984.64
2018-07-30T04:23:56.264Z,984.61
2018-07-30T04:24:56.441Z,984.65
2018-07-30T04:25:57.174Z,984.66
2018-07-30T04:26:56.798Z,984.67
2018-07-30T04:27:56.981Z,984.67
2018-07-30T04:28:57.171Z,984.68
2018-07-30T04:29:57.354Z,984.69
2018-07-30T04:30:58.181Z,984.67
2018-07-30T04:31:57.762Z,984.69
2018-07-30T04:32:57.922Z,984.69
2018-07-30T04:33:58.101Z,984.70
2018-07-30T04:34:58.291Z,984.73
2018-07-30T04:35:58.468Z,984.76
2018-07-30T04:36:58.654Z,984.75
2018-07-30T04:37:58.828Z,984.79
2018-07-30T04:40:42.213Z,984.79
2018-07-30T04:41:41.899Z,984.80
2018-07-30T04:42:42.081Z,984.81
2018-07-30T04:43:42.313Z,984.80
2018-07-30T04:44:42.450Z,984.79
2018-07-30T04:45:42.630Z,984.81
2018-07-30T04:46:42.814Z,984.78
2018-07-30T04:47:43.004Z,984.79
2018-07-30T04:48:43.177Z,984.76
2018-07-30T04:49:43.348Z,984.76
2018-07-30T04:50:43.548Z,984.78
2018-07-30T04:51:43.735Z,984.73
2018-07-30T04:52:43.947Z,984.76
2018-07-30T04:53:44.142Z,984.75
2018-07-30T04:54:44.322Z,984.76
2018-07-30T04:55:44.526Z,984.76
2018-07-30T04:56:44.725Z,984.82
2018-07-30T04:57:44.897Z,984.81
2018-07-30T04:58:45.079Z,984.80
2018-07-30T04:59:45.291Z,984.81
2018-07-30T05:00:45.463Z,984.79
2018-07-30T05:01:45.649Z,984.86
2018-07-30T05:02:45.836Z,984.83
2018-07-30T05:03:46.031Z,984.88
2018-07-30T05:04:46.207Z,984.89
2018-07-30T05:05:46.399Z,984.92
2018-07-30T05:06:46.592Z,984.91
2018-07-30T05:07:46.770Z,984.86
2018-07-30T05:08:46.955Z,984.94
2018-07-30T05:09:47.130Z,984.87
2018-07-30T05:10:47.309Z,984.87
2018-07-30T05:11:47.511Z,984.87
2018-07-30T05:12:47.691Z,984.83
2018-07-30T05:13:47.878Z,984.84
2018-07-30T05:14:48.061Z,984.94
2018-07-30T05:15:48.247Z,985.31
2018-07-30T05:16:48.435Z,985.45
2018-07-30T05:17:48.622Z,985.94
2018-07-30T05:18:48.830Z,986.42
2018-07-30T05:19:49.001Z,986.59
2018-07-30T05:20:49.193Z,986.90
2018-07-30T05:21:49.384Z,986.96
2018-07-30T05:22:49.562Z,986.98
2018-07-30T05:25:34.457Z,987.13
2018-07-30T05:26:32.616Z,986.34
2018-07-30T05:27:32.805Z,986.10
2018-07-30T05:28:32.994Z,985.95
2018-07-30T05:29:33.203Z,985.84
2018-07-30T05:30:33.398Z,985.45
2018-07-30T05:31:33.588Z,985.21
2018-07-30T05:32:33.779Z,985.18
2018-07-30T05:33:33.930Z,985.15
2018-07-30T05:34:34.163Z,985.10
2018-07-30T05:35:34.301Z,985.21
2018-07-30T05:36:34.491Z,985.54
2018-07-30T05:37:34.692Z,985.83
2018-07-30T05:38:34.851Z,986.28
2018-07-30T05:39:35.035Z,986.29
2018-07-30T05:40:35.222Z,986.44
2018-07-30T05:41:35.397Z,986.99
2018-07-30T05:42:35.600Z,986.51
2018-07-30T05:43:35.799Z,986.65
2018-07-30T05:44:35.989Z,986.08
2018-07-30T05:45:36.200Z,986.65
2018-07-30T05:46:36.383Z,986.90
2018-07-30T05:47:36.574Z,986.60
2018-07-30T05:48:36.769Z,986.60
2018-07-30T05:49:36.964Z,985.82
2018-07-30T05:50:37.137Z,985.38
2018-07-30T05:51:37.337Z,985.42
2018-07-30T05:52:37.532Z,986.12
2018-07-30T05:53:37.723Z,986.08
2018-07-30T05:54:37.904Z,986.15
2018-07-30T05:55:38.095Z,986.23
2018-07-30T05:56:38.281Z,986.10
2018-07-30T05:57:38.457Z,986.19
2018-07-30T05:58:38.655Z,986.03
2018-07-30T05:59:38.916Z,986.14
2018-07-30T06:00:39.090Z,986.04
2018-07-30T06:01:39.276Z,986.15
2018-07-30T06:04:24.166Z,986.09
2018-07-30T06:05:22.367Z,986.10
2018-07-30T06:06:22.557Z,986.04
2018-07-30T06:07:22.743Z,986.01
2018-07-30T06:08:22.949Z,986.03
2018-07-30T06:09:23.165Z,985.99
2018-07-30T06:10:23.372Z,986.02
2018-07-30T06:11:23.540Z,986.00
2018-07-30T06:12:23.749Z,986.03
2018-07-30T06:13:23.927Z,986.04
2018-07-30T06:14:24.115Z,986.10
2018-07-30T06:15:24.300Z,986.09
2018-07-30T06:16:24.518Z,986.14
2018-07-30T06:17:24.722Z,986.10
2018-07-30T06:18:24.961Z,986.09
2018-07-30T06:19:25.159Z,986.07
2018-07-30T06:20:25.344Z,986.03
2018-07-30T06:21:25.538Z,986.02
2018-07-30T06:22:25.745Z,985.99
2018-07-30T06:23:25.943Z,986.02
2018-07-30T06:24:26.140Z,986.02
2018-07-30T06:25:26.333Z,985.97
2018-07-30T06:26:26.587Z,986.02
2018-07-30T06:27:26.833Z,986.03
2018-07-30T06:28:26.969Z,985.94
2018-07-30T06:29:27.176Z,986.05
2018-07-30T06:30:27.368Z,986.04
2018-07-30T06:31:27.575Z,986.01
2018-07-30T06:32:27.771Z,986.08
2018-07-30T06:33:27.959Z,986.08
2018-07-30T06:34:28.161Z,986.06
2018-07-30T06:35:28.367Z,986.07
2018-07-30T06:36:28.566Z,986.07
2018-07-30T06:37:28.769Z,986.09
2018-07-30T06:38:29.013Z,986.06
2018-07-30T06:39:29.156Z,986.12
2018-07-30T06:40:29.356Z,986.14
2018-07-30T06:41:29.569Z,986.15
2018-07-30T06:42:29.748Z,986.18
2018-07-30T06:43:29.963Z,986.16
2018-07-30T06:44:30.164Z,986.18
2018-07-30T06:45:30.369Z,986.19
2018-07-30T06:46:30.577Z,986.18
2018-07-30T06:47:30.761Z,986.20
2018-07-30T06:48:30.953Z,986.15
2018-07-30T06:49:31.154Z,986.09
2018-07-30T06:50:31.360Z,986.00
2018-07-30T06:51:31.561Z,985.97
2018-07-30T06:52:31.759Z,986.05
2018-07-30T06:53:31.957Z,986.09
2018-07-30T06:54:32.148Z,986.03
2018-07-30T06:55:32.350Z,986.04
2018-07-30T06:56:32.541Z,986.11
2018-07-30T06:57:32.760Z,986.15
2018-07-30T06:58:32.958Z,986.12
2018-07-30T06:59:33.161Z,986.11
2018-07-30T07:00:33.362Z,986.09
2018-07-30T07:01:33.565Z,986.14
2018-07-30T07:02:33.767Z,986.18
2018-07-30T07:03:33.961Z,986.22
2018-07-30T07:04:34.188Z,986.22
2018-07-30T07:05:34.373Z,986.23
2018-07-30T07:06:34.579Z,986.22
2018-07-30T07:07:34.792Z,986.22
2018-07-30T07:08:34.998Z,986.26
2018-07-30T07:09:35.203Z,986.24
2018-07-30T07:10:35.428Z,986.25
2018-07-30T07:11:35.623Z,986.29
2018-07-30T07:12:35.831Z,986.32
2018-07-30T07:13:36.032Z,986.34
2018-07-30T07:14:36.256Z,986.38
2018-07-30T07:15:36.457Z,986.43
2018-07-30T07:16:36.717Z,986.44
2018-07-30T07:17:36.880Z,986.47
2018-07-30T07:18:37.073Z,986.48
2018-07-30T07:19:37.272Z,986.63
2018-07-30T07:20:37.506Z,986.71
2018-07-30T07:21:37.721Z,986.78
2018-07-30T07:22:37.864Z,986.92
2018-07-30T07:23:38.080Z,987.16
2018-07-30T07:24:38.270Z,987.42
2018-07-30T07:25:38.474Z,987.64
2018-07-30T07:26:38.674Z,987.82
2018-07-30T07:27:38.861Z,987.97
2018-07-30T07:28:39.072Z,988.44
2018-07-30T07:29:39.271Z,989.36
2018-07-30T07:30:39.469Z,989.81
2018-07-30T07:31:39.678Z,989.95
2018-07-30T07:32:39.883Z,989.80
2018-07-30T07:33:40.101Z,989.20
2018-07-30T07:34:40.298Z,988.97
2018-07-30T07:35:40.495Z,988.82
2018-07-30T07:36:40.687Z,988.48
2018-07-30T07:37:40.929Z,987.95
2018-07-30T07:38:41.118Z,987.69
2018-07-30T07:39:41.319Z,987.55
2018-07-30T07:40:41.524Z,987.37
2018-07-30T07:41:41.719Z,987.26
2018-07-30T07:42:41.902Z,987.17
2018-07-30T07:43:42.130Z,987.04
2018-07-30T07:44:42.358Z,986.93
2018-07-30T07:45:42.548Z,986.86
2018-07-30T07:46:42.743Z,986.77
2018-07-30T07:47:42.943Z,986.68
2018-07-30T07:48:43.143Z,986.57
2018-07-30T07:49:43.331Z,986.49
2018-07-30T07:50:43.669Z,986.40
2018-07-30T07:51:43.752Z,986.35
2018-07-30T07:52:43.959Z,986.30
2018-07-30T07:53:44.174Z,986.26
2018-07-30T07:54:44.344Z,986.22
2018-07-30T07:55:44.545Z,986.19
2018-07-30T07:56:44.741Z,986.17
2018-07-30T07:57:44.964Z,986.16
2018-07-30T07:58:45.157Z,986.20
2018-07-30T07:59:45.350Z,986.18
2018-07-30T08:00:45.547Z,986.15
2018-07-30T08:01:45.749Z,986.17
2018-07-30T08:02:45.945Z,986.12
2018-07-30T08:03:46.138Z,986.11
2018-07-30T08:04:46.352Z,986.12
2018-07-30T08:05:46.562Z,986.12
2018-07-30T08:06:46.763Z,986.11
2018-07-30T08:07:46.944Z,986.07
2018-07-30T08:08:47.150Z,986.07
2018-07-30T08:09:47.420Z,986.07
2018-07-30T08:10:47.589Z,986.07
2018-07-30T08:11:47.757Z,986.07
2018-07-30T08:12:47.960Z,986.12
2018-07-30T08:13:48.146Z,986.04
2018-07-30T08:14:48.356Z,986.06
2018-07-30T08:15:48.550Z,986.02
2018-07-30T08:16:48.742Z,986.05
2018-07-30T08:17:48.936Z,986.05
2018-07-30T08:18:49.140Z,986.01
2018-07-30T08:19:49.339Z,986.01
2018-07-30T08:20:49.544Z,985.94
2018-07-30T08:21:49.745Z,985.90
2018-07-30T08:22:49.934Z,985.88
2018-07-30T08:23:50.132Z,985.90
2018-07-30T08:24:50.317Z,985.84
2018-07-30T08:25:50.519Z,985.82
2018-07-30T08:26:50.697Z,985.80
2018-07-30T08:27:50.892Z,985.74
2018-07-30T08:28:51.090Z,985.76
2018-07-30T08:29:51.277Z,985.73
2018-07-30T08:30:51.492Z,985.76
2018-07-30T08:31:51.687Z,985.70
2018-07-30T08:32:51.892Z,985.68
2018-07-30T08:33:52.063Z,985.66
2018-07-30T08:34:52.260Z,985.67
2018-07-30T08:35:52.460Z,985.66
2018-07-30T08:36:52.652Z,985.67
2018-07-30T08:37:52.847Z,985.70
2018-07-30T08:38:53.042Z,985.70
2018-07-30T08:39:53.239Z,985.68
2018-07-30T08:40:53.429Z,985.71
2018-07-30T08:41:53.611Z,985.68
2018-07-30T08:42:53.826Z,985.68
2018-07-30T08:43:54.022Z,985.67
2018-07-30T08:44:54.224Z,985.68
2018-07-30T08:45:54.409Z,985.71
2018-07-30T08:46:54.598Z,985.69
2018-07-30T08:47:54.808Z,985.64
2018-07-30T08:48:55.068Z,985.67
2018-07-30T08:49:55.188Z,985.63
2018-07-30T08:50:55.394Z,985.66
2018-07-30T08:51:55.591Z,985.64
2018-07-30T08:52:55.799Z,985.62
2018-07-30T08:53:55.970Z,985.63
2018-07-30T08:54:56.176Z,985.67
2018-07-30T08:55:56.369Z,985.61
2018-07-30T08:56:56.554Z,985.63
2018-07-30T08:57:56.732Z,985.58
2018-07-30T08:58:56.915Z,985.58
2018-07-30T08:59:57.131Z,985.58
2018-07-30T09:00:57.327Z,985.60
2018-07-30T09:01:57.528Z,985.57
2018-07-30T09:02:57.724Z,985.57
2018-07-30T09:03:57.907Z,985.57
2018-07-30T09:04:58.102Z,985.60
2018-07-30T09:05:58.297Z,985.58
2018-07-30T09:06:58.494Z,985.62
2018-07-30T09:07:58.686Z,985.62
2018-07-30T09:08:58.868Z,985.62
2018-07-30T09:09:59.059Z,985.64
2018-07-30T09:10:59.245Z,985.60
2018-07-30T09:11:59.454Z,985.59
2018-07-30T09:12:59.625Z,985.58
2018-07-30T09:13:59.822Z,985.56
2018-07-30T09:15:00.024Z,985.57
2018-07-30T09:16:00.221Z,985.55
2018-07-30T09:17:00.408Z,985.54
2018-07-30T09:18:00.583Z,985.51
2018-07-30T09:19:00.777Z,985.50
2018-07-30T09:20:00.961Z,985.52
2018-07-30T09:21:01.148Z,985.48
2018-07-30T09:22:01.342Z,985.55
2018-07-30T09:23:01.535Z,985.52
2018-07-30T09:24:01.742Z,985.50
2018-07-30T09:25:01.923Z,985.51
2018-07-30T09:26:02.122Z,985.48
2018-07-30T09:27:02.308Z,985.48
2018-07-30T09:28:02.495Z,985.52
2018-07-30T09:29:02.679Z,985.55
2018-07-30T09:30:02.872Z,985.56
2018-07-30T09:31:03.053Z,985.57
2018-07-30T09:32:03.258Z,985.60
2018-07-30T09:33:03.553Z,985.59
2018-07-30T09:34:03.651Z,985.61
2018-07-30T09:35:03.830Z,985.61
2018-07-30T09:37:46.760Z,985.59
2018-07-30T09:38:46.970Z,985.54
2018-07-30T09:39:47.149Z,985.58
2018-07-30T09:40:47.346Z,985.56
2018-07-30T09:41:47.549Z,985.59
2018-07-30T09:42:47.742Z,985.58
2018-07-30T09:43:47.929Z,985.58
2018-07-30T09:44:48.149Z,985.56
2018-07-30T09:45:48.355Z,985.59
2018-07-30T09:46:48.514Z,985.58
2018-07-30T09:47:48.711Z,985.57
2018-07-30T09:48:48.939Z,985.56
2018-07-30T09:49:49.112Z,985.55
2018-07-30T09:50:49.301Z,985.51
2018-07-30T09:51:49.495Z,985.51
2018-07-30T09:52:49.678Z,985.50
2018-07-30T09:53:49.877Z,985.54
2018-07-30T09:54:50.074Z,985.49
2018-07-30T09:55:50.272Z,985.56
2018-07-30T09:56:50.460Z,985.52
2018-07-30T09:57:50.664Z,985.47
2018-07-30T09:58:50.863Z,985.47
2018-07-30T09:59:51.062Z,985.44
2018-07-30T10:00:51.248Z,985.41
2018-07-30T10:01:51.448Z,985.47
2018-07-30T10:02:51.650Z,985.46
2018-07-30T10:03:51.847Z,985.48
2018-07-30T10:04:52.049Z,985.44
2018-07-30T10:05:52.249Z,985.45
2018-07-30T10:06:52.431Z,985.45
2018-07-30T10:07:52.629Z,985.48
2018-07-30T10:08:52.813Z,985.49
2018-07-30T10:09:53.014Z,985.49
2018-07-30T10:10:53.235Z,985.47
2018-07-30T10:11:53.450Z,985.50
2018-07-30T10:12:53.627Z,985.47
2018-07-30T10:13:53.822Z,985.47
2018-07-30T10:14:54.016Z,985.46
2018-07-30T10:15:54.216Z,985.40
2018-07-30T10:16:54.416Z,985.39
2018-07-30T10:17:54.660Z,985.40
2018-07-30T10:18:54.799Z,985.42
2018-07-30T10:19:54.996Z,985.39
2018-07-30T10:20:55.186Z,985.38
2018-07-30T10:21:55.378Z,985.33
2018-07-30T10:22:55.564Z,985.28
2018-07-30T10:23:55.762Z,985.31
2018-07-30T10:24:55.986Z,985.34
2018-07-30T10:25:56.173Z,985.33
2018-07-30T10:26:56.378Z,985.36
2018-07-30T10:27:56.578Z,985.30
2018-07-30T10:28:56.766Z,985.24
2018-07-30T10:29:56.956Z,985.22
2018-07-30T10:30:57.143Z,985.24
2018-07-30T10:31:57.330Z,985.20
2018-07-30T10:32:57.571Z,985.19
2018-07-30T10:33:57.718Z,985.21
2018-07-30T10:34:57.902Z,985.18
2018-07-30T10:35:58.123Z,985.16
2018-07-30T10:36:58.302Z,985.17
2018-07-30T10:37:58.581Z,985.19
2018-07-30T10:38:58.720Z,985.21
2018-07-30T10:39:58.994Z,985.19
2018-07-30T10:40:59.086Z,985.18
2018-07-30T10:41:59.277Z,985.17
2018-07-30T10:42:59.456Z,985.10
2018-07-30T10:43:59.677Z,985.12
2018-07-30T10:44:59.885Z,985.10
2018-07-30T10:46:00.089Z,985.07
2018-07-30T10:47:00.279Z,985.06
2018-07-30T10:48:00.478Z,985.05
2018-07-30T10:49:00.668Z,985.00
2018-07-30T10:50:00.863Z,985.01
2018-07-30T10:51:01.061Z,985.02
2018-07-30T10:52:01.268Z,985.02
2018-07-30T10:53:01.446Z,984.96
2018-07-30T10:54:01.658Z,984.94
2018-07-30T10:55:01.853Z,984.94
2018-07-30T10:56:02.046Z,984.97
2018-07-30T10:57:02.236Z,984.94
2018-07-30T10:58:02.415Z,984.92
2018-07-30T10:59:02.606Z,984.93
2018-07-30T11:00:02.807Z,984.89
2018-07-30T11:01:03.017Z,984.89
2018-07-30T11:02:03.207Z,984.91
2018-07-30T11:04:46.140Z,984.98
2018-07-30T11:05:46.353Z,984.94
2018-07-30T11:06:46.536Z,984.95
2018-07-30T11:07:46.725Z,984.94
2018-07-30T11:08:46.921Z,984.91
2018-07-30T11:09:47.183Z,984.89
2018-07-30T11:10:47.300Z,984.91
2018-07-30T11:11:47.474Z,984.88
2018-07-30T11:12:47.674Z,984.88
2018-07-30T11:13:47.868Z,984.94
2018-07-30T11:14:48.076Z,984.93
2018-07-30T11:15:48.240Z,984.93
2018-07-30T11:16:48.441Z,984.89
2018-07-30T11:17:48.634Z,984.91
2018-07-30T11:18:48.828Z,984.89
2018-07-30T11:19:49.016Z,984.93
2018-07-30T11:20:49.246Z,984.93
2018-07-30T11:21:49.424Z,984.88
2018-07-30T11:22:49.640Z,984.89
2018-07-30T11:23:49.816Z,984.90
2018-07-30T11:24:49.996Z,984.92
2018-07-30T11:25:50.185Z,984.88
2018-07-30T11:26:50.387Z,984.90
2018-07-30T11:27:50.626Z,984.92
2018-07-30T11:28:50.754Z,984.93
2018-07-30T11:29:50.949Z,984.92
2018-07-30T11:30:51.138Z,984.94
2018-07-30T11:31:51.352Z,984.95
2018-07-30T11:32:51.535Z,984.91
2018-07-30T11:33:51.740Z,984.85
2018-07-30T11:34:51.935Z,984.89
2018-07-30T11:35:52.120Z,984.84
2018-07-30T11:36:52.316Z,984.82
2018-07-30T11:37:52.512Z,984.87
2018-07-30T11:38:52.698Z,984.78
2018-07-30T11:39:52.923Z,984.77
2018-07-30T11:40:53.151Z,984.74
2018-07-30T11:41:53.351Z,984.71
2018-07-30T11:42:53.567Z,984.74
2018-07-30T11:43:53.747Z,984.70
2018-07-30T11:44:53.952Z,984.69
2018-07-30T11:45:54.140Z,984.68
2018-07-30T11:46:54.324Z,984.68
2018-07-30T11:47:54.516Z,984.74
2018-07-30T11:48:54.730Z,984.71
2018-07-30T11:49:54.923Z,984.70
2018-07-30T11:50:55.119Z,984.70
2018-07-30T11:51:55.326Z,984.65
2018-07-30T11:52:55.537Z,984.69
2018-07-30T11:53:55.811Z,984.69
2018-07-30T11:54:55.902Z,984.71
2018-07-30T11:55:56.092Z,984.67
2018-07-30T11:56:56.287Z,984.67
2018-07-30T11:57:56.477Z,984.65
2018-07-30T11:58:56.675Z,984.63
2018-07-30T11:59:56.868Z,984.71
2018-07-30T12:00:57.088Z,984.68
2018-07-30T12:01:57.268Z,984.65
2018-07-30T12:02:57.455Z,984.63
2018-07-30T12:03:57.641Z,984.69
2018-07-30T12:04:57.825Z,984.66
2018-07-30T12:05:58.015Z,984.68
2018-07-30T12:06:58.205Z,984.69
2018-07-30T12:07:58.393Z,984.66
2018-07-30T12:08:58.583Z,984.64
2018-07-30T12:09:58.788Z,984.63
2018-07-30T12:10:58.995Z,984.61
2018-07-30T12:11:59.186Z,984.62
2018-07-30T12:12:59.378Z,984.59
2018-07-30T12:13:59.575Z,984.62
2018-07-30T12:14:59.771Z,984.60
2018-07-30T12:15:59.963Z,984.55
2018-07-30T12:17:00.161Z,984.57
2018-07-30T12:18:00.352Z,984.57
2018-07-30T12:19:00.537Z,984.55
2018-07-30T12:20:00.726Z,984.56
2018-07-30T12:21:00.936Z,984.55
2018-07-30T12:22:01.129Z,984.54
2018-07-30T12:23:01.371Z,984.54
2018-07-30T12:24:01.564Z,984.54
2018-07-30T12:25:01.776Z,984.47
2018-07-30T12:26:01.961Z,984.48
2018-07-30T12:27:02.152Z,984.47
2018-07-30T12:28:02.362Z,984.48
2018-07-30T12:29:02.564Z,984.49
2018-07-30T12:30:02.805Z,984.45
2018-07-30T12:31:02.961Z,984.47
2018-07-30T12:32:03.157Z,984.44
2018-07-30T12:33:03.448Z,984.43
2018-07-30T12:34:03.586Z,984.43
2018-07-30T12:36:46.553Z,984.39
2018-07-30T12:37:46.741Z,984.41
2018-07-30T12:38:46.934Z,984.38
2018-07-30T12:39:47.129Z,984.39
2018-07-30T12:40:47.326Z,984.36
2018-07-30T12:41:47.530Z,984.33
2018-07-30T12:42:47.705Z,984.32
2018-07-30T12:43:47.892Z,984.34
2018-07-30T12:44:48.153Z,984.28
2018-07-30T12:45:48.271Z,984.28